Istvan Kleinheisler

Scout - Ferencvaros
3 Dec 2028
Sunday
Process

Personality

Adaptability (18) Ambition (2) Controversy (15) Loyalty (1) Pressure (3) Professionalism (1) Sportsmanship (1) Temperament (1)

Profile

Coaching Style Democratic
License Continental B
Determination 8
Man Management 10
Motivating 10
Discipline 5
Job Satisfaction
100%
Fatigue
0%
Role Scout
Wage 39.7K p/w
Contract 14.03.2029

Performance

Behaviour Good
Training Effectiveness
39%
Player Development
55%
Injury Prevention
55%
Tactical Implementation
30%

Recent Events

Attended a recruitment meeting now
Recommended a transfer target now
Recommended a transfer target now
Recommended a transfer target 7d ago
Recommended a transfer target 7d ago
Assessed a player 7d ago
Assessed a player 7d ago
Assessed a player 7d ago

Currently Monitoring

113
Player Club Status Ability Confidence Watched Last Observed Latest Vote
Agustín Giay Palmeiras Active 144 / 143 40% 4 02.12.2028 -
Alan Velasco Fortaleza Active 132 / 131 40% 3 02.12.2028 -
Joe Willock Newcastle United Active 143 / 159 40% 1 02.12.2028 -
Kaiki Cruzeiro Active 136 / 140 40% 5 28.11.2028 -
Jaden Philogene Wolverhampton Active 160 / 152 40% 3 28.11.2028 -
Carlos Alcaraz Stoke City Active 163 / 162 40% 5 28.11.2028 -
Álvaro Barreal Atlético Mineiro Active 141 / 131 40% 3 25.11.2028 -
Calebe Fortaleza Active 141 / 131 40% 4 25.11.2028 -
Fer López Wolverhampton Active 143 / 153 40% 1 25.11.2028 -
Jens Petter Hauge Bodo/Glimt Active 155 / 142 40% 6 22.11.2028 -
Barış Alper Yılmaz Cruzeiro Active 156 / 153 40% 5 21.11.2028 -
Kerem Aktürkoğlu Atlético Mineiro Active 153 / 147 40% 2 21.11.2028 -
Gonzalo Plata Nacional Active 136 / 136 40% 3 19.11.2028 -
Guille Rosas Boca Juniors Active 148 / 144 40% 2 19.11.2028 -
Rodrigo Garro Corinthians Active 142 / 134 40% 4 18.11.2028 -
Erick Pulga Bahia Active 140 / 136 40% 3 17.11.2028 -
Jhon Arias Palmeiras Active 145 / 144 40% 5 16.11.2028 -
Emile Smith Rowe Cardiff City Active 170 / 162 40% 1 16.11.2028 -
Toni Fruk Talleres Active 137 / 142 40% 3 15.11.2028 -
Riku Yamane Yokohama F. Marinos Active 148 / 134 40% 3 15.11.2028 -
Brenden Aaronson Internacional Active 153 / 150 40% 3 11.11.2028 -
Ramón Sosa Palmeiras Active 134 / 138 40% 2 11.11.2028 -
Andrés Gómez Vasco da Gama Active 135 / 140 40% 4 09.11.2028 -
Alexandro Bernabei Internacional Active 135 / 133 40% 5 09.11.2028 -
Marcelo Allende Mamelodi Sundowns Active 137 / 140 40% 5 08.11.2028 -
Fábio Carvalho Brentford Active 138 / 147 40% 1 05.11.2028 -
Fredrik Sjøvold Bodo/Glimt Active 154 / 144 40% 1 05.11.2028 -
Martinelli Fluminense Active 146 / 147 40% 3 02.11.2028 -
Álvaro Montoro Botafogo Active 131 / 138 40% 1 30.10.2028 -
Lucas Piton Vasco da Gama Active 131 / 132 40% 3 28.10.2028 -
Rico Henry River Plate Active 137 / 143 40% 1 28.10.2028 -
Ismaël Bennacer Boca Juniors Active 153 / 144 40% 2 23.10.2028 -
Renan Lodi Atlético Mineiro Active 143 / 137 40% 2 19.10.2028 -
Pedro Baltika Active 144 / 147 40% 1 17.10.2028 -
Danilo Botafogo Active 150 / 148 40% 3 15.10.2028 -
Jaidon Anthony Derby County Active 134 / 137 40% 1 09.10.2028 -
Endrick Boca Juniors Active 157 / 159 40% 5 08.10.2028 -
Lyle Foster Rosenborg Active 126 / 132 40% 2 06.10.2028 -
Tino Livramento Newcastle United Active 178 / 169 40% 3 02.10.2028 -
Marcos Antonio Sport Recife Active 148 / 144 40% 2 26.09.2028 -
Denis Genreau Melbourne Victory Active 147 / 132 40% 1 21.09.2028 -
Gérson Cruzeiro Active 138 / 137 40% 2 17.09.2028 -
Luis Sinisterra Cruzeiro Active 144 / 143 40% 2 17.09.2028 -
Evander Wolverhampton Lost 155 / 152 40% 1 07.08.2028 -
Alex Scott Bournemouth Active 163 / 161 40% 1 07.08.2028 -
Patrick Iyinbor Vasas Active 118 / 105 62% 1 03.06.2028 Approve
Óscar Mingueza Crystal Palace Active 170 / 162 40% 1 31.05.2028 -
André Wolverhampton Active 149 / 156 40% 1 31.05.2028 -
Daniel Arzani Fehervar Active 112 / 110 62% 1 07.01.2028 Approve
Sergio Barlocco Trento Active 110 / 107 40% 1 19.07.2027 -
Abduvohid Ne'matov Nasaf Active 127 / 112 40% 1 19.07.2027 -
Daniel Nikolic Haladas Active 116 / 112 58% 1 04.06.2027 -
Luca Gemello Perugia Active 113 / 112 40% 1 01.06.2027 -
Shea Charles Southampton Active 150 / 145 40% 2 31.05.2027 -
Andre Brooks Sheffield United Active 135 / 129 40% 1 30.05.2027 -
Tyrese Campbell Sheffield United Active 121 / 119 40% 3 27.05.2027 -
David Turnbull Cardiff City Active 119 / 128 40% 2 27.05.2027 -
Max Johnston Derby County Active 124 / 139 40% 2 26.05.2027 -
Aidan Morris Middlesbrough Active 136 / 141 40% 1 26.05.2027 -
Bosun Lawal Stoke City Active 141 / 122 40% 3 25.05.2027 -
Ethan Pye Stockport County Active 131 / 110 40% 1 24.05.2027 -
Nicolas Madsen Queens Park Rangers Active 136 / 129 40% 1 24.05.2027 -
Alex Robertson Cardiff City Active 111 / 116 40% 1 23.05.2027 -
Milan van Ewijk Coventry City Active 123 / 132 40% 2 21.05.2027 -
Jacques Ekomié Wrexham Active 133 / 128 40% 1 18.05.2027 -
Habib Diarra Sunderland Active 137 / 137 40% 3 16.05.2027 -
Joel Bagan Cardiff City Active 125 / 114 40% 2 15.05.2027 -
Oliver Skipp Leicester City Active 131 / 121 40% 1 14.05.2027 -
Welington Southampton Active 133 / 136 40% 2 12.05.2027 -
Othmane Maamma Watford Active 139 / 118 40% 1 12.05.2027 -
Luke McNally Bristol City Active 124 / 132 40% 1 12.05.2027 -
Samuel Edozie Southampton Active 137 / 116 40% 2 07.05.2027 -
Joe Gelhardt Hull City Active 127 / 141 40% 1 06.05.2027 -
Isaiah Jones Luton Town Active 139 / 122 40% 1 03.05.2027 -
Tomáš Rigo Stoke City Active 114 / 123 40% 1 29.04.2027 -
Kwadwo Baah Watford Active 125 / 120 40% 1 29.04.2027 -
Jason Knight Bristol City Active 127 / 127 40% 2 27.04.2027 -
Bongani Zungu Ajax Cape Town Active 130 / 139 40% 2 24.04.2027 -
Brian De Keersmaecker Oxford United Active 107 / 117 40% 2 24.04.2027 -
Romano Floriani Mussolini Blackpool Active 116 / 134 40% 1 22.04.2027 -
Finn Azaz Southampton Active 140 / 133 40% 1 21.04.2027 -
Unai Gómez Udinese Active 124 / 149 40% 2 13.04.2027 -
Hans Nicolussi Caviglia Parma Active 118 / 135 40% 2 12.04.2027 -
Tommaso Pobega Bologna Active 150 / 131 40% 1 11.04.2027 -
Ilario Monterisi Frosinone Active 122 / 118 40% 1 11.04.2027 -
Niccolò Pierozzi Palermo Active 142 / 131 40% 1 10.04.2027 -
Adrián Bernabé Parma Active 141 / 133 40% 1 09.04.2027 -
Andrea Colpani Monza Active 152 / 130 40% 1 09.04.2027 -
Billy Gilmour Napoli Active 145 / 134 40% 2 30.03.2027 -
Matteo Lovato Padova Active 139 / 133 40% 1 28.03.2027 -
Hannibal Burnley Active 119 / 137 40% 2 26.03.2027 -
Álex Centelles Levski Active 131 / 117 40% 3 26.03.2027 -
Iker Pozo Rodina Active 106 / 117 40% 1 22.03.2027 -
Ilyas Ansah Hull City Active 114 / 123 40% 3 19.03.2027 -
Turki Al-Ammar Al-Qadisiyah Active 123 / 107 40% 1 18.03.2027 -
Kirill Glebov CSKA Moscow Active 130 / 137 40% 3 17.03.2027 -
Léo Pereira CSKA Sofia Active 131 / 114 40% 2 07.03.2027 -
Rubens Dinamo Moscow Active 132 / 135 40% 3 07.03.2027 -
Thalente Mbatha Orlando Pirates Active 98 / 111 40% 1 07.03.2027 -
Arsen Adamov Akhmat Grozny Active 110 / 125 40% 1 04.03.2027 -
Dion Lopy Al-Ittihad Active 131 / 124 40% 2 03.03.2027 -
Aldair Faustino Levski Active 109 / 125 40% 3 02.03.2027 -
Veldin Hodža Rubin Active 111 / 120 40% 1 01.03.2027 -
Petar Stanić Ludogorets Active 143 / 132 40% 1 26.02.2027 -
Crysencio Summerville Al-Hilal Active 154 / 138 40% 1 16.02.2027 -
Zaydou Youssouf Al-Fateh Active 138 / 139 40% 1 12.02.2027 -
Sergey Pinyaev Lokomotiv Moscow Active 120 / 123 40% 2 10.02.2027 -
Alexandr Chernikov Krasnodar Active 121 / 140 40% 1 09.02.2027 -
Ilja Vakhania Krasnodar Active 129 / 113 40% 1 25.01.2027 -
Armstrong Oko-Flex Levski Active 109 / 111 40% 1 18.01.2027 -
Mohau Nkota Al-Ettifaq Active 105 / 117 40% 1 14.01.2027 -
Álex Vallejo Diosgyor Active 118 / 100 51% 1 31.08.2026 -
David Affengruber Fulham Active 149 / 134 40% 1 01.08.2026 -